Time;durP1;ratioP1;P1;durP2;ratioP2;P2;SDS_P1;SDS_P2;PMS_P1;PMS_P2;Temp;Humidity;BMP_temperature;BMP_pressure;BME280_temperature;BME280_humidity;BME280_pressure;Samples;Min_cycle;Max_cycle;Signal;HPM_P1;HPM_P2
2023/08/02 00:00:57;;;;;;;;;;;22.20;52.10;;;;;;1609226;73;695;-59
2023/08/02 00:02:58;;;;;;;;;;;22.20;52.00;;;;;;1600082;73;718;-57
2023/08/02 00:05:00;;;;;;;;;;;22.20;52.00;;;;;;1605369;73;733;-57
2023/08/02 00:07:03;;;;;;;;;;;22.20;52.10;;;;;;1606151;73;702;-57
2023/08/02 00:09:04;;;;;;;;;;;22.20;51.90;;;;;;1602101;73;1103;-59
2023/08/02 00:11:06;;;;;;;;;;;22.20;52.00;;;;;;1610914;73;819;-58
2023/08/02 00:13:08;;;;;;;;;;;22.10;52.00;;;;;;1582643;74;802;-56
2023/08/02 00:15:10;;;;;;;;;;;22.10;52.00;;;;;;1596539;74;1927;-58
2023/08/02 00:17:12;;;;;;;;;;;22.20;52.00;;;;;;1601445;73;720;-58
2023/08/02 00:19:14;;;;;;;;;;;22.20;52.00;;;;;;1595739;73;1104;-58
2023/08/02 00:21:16;;;;;;;;;;;22.20;51.90;;;;;;1605624;73;1328;-59
2023/08/02 00:23:17;;;;;;;;;;;22.20;51.80;;;;;;1601598;73;728;-57
2023/08/02 00:25:19;;;;;;;;;;;22.20;51.90;;;;;;1589189;73;641;-58
2023/08/02 00:27:21;;;;;;;;;;;22.10;51.80;;;;;;1609670;73;770;-56
2023/08/02 00:29:23;;;;;;;;;;;22.20;51.80;;;;;;1603376;73;1084;-57
2023/08/02 00:31:25;;;;;;;;;;;22.10;51.90;;;;;;1603196;73;736;-58
2023/08/02 00:33:27;;;;;;;;;;;22.20;51.90;;;;;;1590188;73;767;-56
2023/08/02 00:35:29;;;;;;;;;;;22.20;51.70;;;;;;1607023;73;1907;-57
2023/08/02 00:37:31;;;;;;;;;;;22.10;51.70;;;;;;1599750;73;935;-58
2023/08/02 00:39:32;;;;;;;;;;;22.10;51.60;;;;;;1597533;72;1082;-57
2023/08/02 00:41:34;;;;;;;;;;;22.10;51.50;;;;;;1604862;73;745;-56
2023/08/02 00:43:40;;;;;;;;;;;22.20;51.60;;;;;;1598646;73;749;-58
2023/08/02 00:45:42;;;;;;;;;;;22.10;51.50;;;;;;1604412;73;743;-57
2023/08/02 00:47:43;;;;;;;;;;;22.10;51.50;;;;;;1609286;73;782;-60
2023/08/02 00:49:45;;;;;;;;;;;22.10;51.50;;;;;;1600243;73;1436;-57
2023/08/02 00:51:47;;;;;;;;;;;22.10;51.50;;;;;;1604579;73;767;-57
2023/08/02 00:53:49;;;;;;;;;;;22.10;51.50;;;;;;1605908;73;670;-57
2023/08/02 00:55:51;;;;;;;;;;;22.10;51.50;;;;;;1607042;73;1953;-57
2023/08/02 00:57:53;;;;;;;;;;;22.10;51.40;;;;;;1611008;73;771;-59
2023/08/02 00:59:55;;;;;;;;;;;22.20;51.40;;;;;;1599368;73;1147;-58
2023/08/02 01:01:57;;;;;;;;;;;22.10;51.50;;;;;;1610709;73;767;-58
2023/08/02 01:03:59;;;;;;;;;;;22.10;51.50;;;;;;1598828;73;1296;-57
2023/08/02 01:06:02;;;;;;;;;;;22.20;51.40;;;;;;1607631;73;835;-60
2023/08/02 01:08:04;;;;;;;;;;;22.10;51.30;;;;;;1604673;73;694;-57
2023/08/02 01:10:14;;;;;;;;;;;22.10;51.30;;;;;;1604913;73;1127;-59
2023/08/02 01:12:16;;;;;;;;;;;22.10;51.10;;;;;;1584889;73;1822;-60
2023/08/02 01:14:19;;;;;;;;;;;22.10;51.30;;;;;;1606903;73;779;-59
2023/08/02 01:16:23;;;;;;;;;;;22.10;51.20;;;;;;1594784;73;1916;-58
2023/08/02 01:18:25;;;;;;;;;;;22.10;51.30;;;;;;1607135;73;1607;-57
2023/08/02 01:20:27;;;;;;;;;;;22.10;51.20;;;;;;1602683;73;743;-57
2023/08/02 01:22:29;;;;;;;;;;;22.10;51.10;;;;;;1602586;73;747;-57
2023/08/02 01:24:33;;;;;;;;;;;22.10;51.10;;;;;;1603650;73;730;-59
2023/08/02 01:26:34;;;;;;;;;;;22.10;51.10;;;;;;1607286;73;1787;-58
2023/08/02 01:28:38;;;;;;;;;;;22.10;51.10;;;;;;1585161;73;1136;-58
2023/08/02 01:30:39;;;;;;;;;;;22.10;51.00;;;;;;1606331;73;738;-57
2023/08/02 01:32:41;;;;;;;;;;;22.10;51.10;;;;;;1599675;73;1432;-59
2023/08/02 01:34:43;;;;;;;;;;;22.10;51.00;;;;;;1613295;72;685;-58
2023/08/02 01:36:45;;;;;;;;;;;22.10;51.00;;;;;;1608263;73;1933;-57
2023/08/02 01:38:47;;;;;;;;;;;22.10;51.10;;;;;;1595880;73;1115;-56
2023/08/02 01:40:49;;;;;;;;;;;22.10;50.90;;;;;;1610616;73;776;-57
2023/08/02 01:42:51;;;;;;;;;;;22.10;50.80;;;;;;1607428;73;680;-58
2023/08/02 01:44:52;;;;;;;;;;;22.00;50.70;;;;;;1609273;73;731;-57
2023/08/02 01:46:54;;;;;;;;;;;22.10;50.80;;;;;;1605436;73;1553;-58
2023/08/02 01:48:56;;;;;;;;;;;22.10;50.90;;;;;;1596381;73;1092;-58
2023/08/02 01:50:58;;;;;;;;;;;22.10;50.90;;;;;;1607628;73;715;-58
2023/08/02 01:53:00;;;;;;;;;;;22.00;50.70;;;;;;1610746;73;660;-57
2023/08/02 01:55:02;;;;;;;;;;;22.00;50.70;;;;;;1601137;73;736;-56
2023/08/02 01:57:04;;;;;;;;;;;22.00;50.50;;;;;;1585614;73;1939;-57
2023/08/02 01:59:06;;;;;;;;;;;22.10;50.60;;;;;;1604525;73;1092;-58
2023/08/02 02:01:08;;;;;;;;;;;22.00;50.60;;;;;;1598162;73;1425;-59
2023/08/02 02:03:09;;;;;;;;;;;22.10;50.70;;;;;;1609191;73;759;-59
2023/08/02 02:05:11;;;;;;;;;;;22.10;50.60;;;;;;1606304;73;696;-57
2023/08/02 02:07:13;;;;;;;;;;;22.00;50.40;;;;;;1593690;73;763;-57
2023/08/02 02:09:15;;;;;;;;;;;22.10;50.60;;;;;;1599591;73;1119;-57
2023/08/02 02:11:17;;;;;;;;;;;22.10;50.60;;;;;;1610253;73;746;-55
2023/08/02 02:13:19;;;;;;;;;;;22.10;50.50;;;;;;1603507;73;791;-60
2023/08/02 02:15:21;;;;;;;;;;;22.10;50.40;;;;;;1599243;73;1318;-59
2023/08/02 02:17:23;;;;;;;;;;;22.10;50.40;;;;;;1603129;73;1932;-60
2023/08/02 02:19:25;;;;;;;;;;;22.00;50.30;;;;;;1585535;73;1082;-59
2023/08/02 02:21:27;;;;;;;;;;;22.10;50.40;;;;;;1601640;73;715;-58
2023/08/02 02:23:29;;;;;;;;;;;22.10;50.30;;;;;;1594794;73;803;-60
2023/08/02 02:25:31;;;;;;;;;;;22.00;50.20;;;;;;1609006;73;717;-58
2023/08/02 02:27:32;;;;;;;;;;;22.00;50.20;;;;;;1592126;73;794;-58
2023/08/02 02:29:34;;;;;;;;;;;22.00;50.20;;;;;;1604545;72;1639;-57
2023/08/02 02:31:36;;;;;;;;;;;22.00;50.20;;;;;;1606054;72;753;-57
2023/08/02 02:33:38;;;;;;;;;;;22.00;50.20;;;;;;1605087;73;855;-57
2023/08/02 02:35:40;;;;;;;;;;;22.00;50.20;;;;;;1598221;73;737;-58
2023/08/02 02:37:42;;;;;;;;;;;22.00;50.30;;;;;;1606019;73;1923;-58
2023/08/02 02:39:44;;;;;;;;;;;22.00;50.30;;;;;;1597251;73;1149;-60
2023/08/02 02:41:46;;;;;;;;;;;22.00;50.20;;;;;;1596410;73;1333;-58
2023/08/02 02:43:47;;;;;;;;;;;22.00;50.20;;;;;;1594771;73;796;-55
2023/08/02 02:45:49;;;;;;;;;;;22.00;50.20;;;;;;1602928;73;780;-59
2023/08/02 02:47:51;;;;;;;;;;;22.00;50.50;;;;;;1603110;73;764;-58
2023/08/02 02:49:53;;;;;;;;;;;22.00;50.30;;;;;;1596375;73;1172;-57
2023/08/02 02:51:55;;;;;;;;;;;22.00;50.40;;;;;;1605150;73;780;-54
2023/08/02 02:53:57;;;;;;;;;;;22.00;50.20;;;;;;1610648;73;693;-58
2023/08/02 02:55:59;;;;;;;;;;;22.00;50.00;;;;;;1591983;73;1926;-57
2023/08/02 02:58:00;;;;;;;;;;;22.00;50.00;;;;;;1594527;73;723;-56
2023/08/02 03:00:03;;;;;;;;;;;22.00;50.10;;;;;;1598550;73;1072;-60
2023/08/02 03:02:05;;;;;;;;;;;22.00;50.00;;;;;;1604484;73;747;-59
2023/08/02 03:04:07;;;;;;;;;;;22.00;50.00;;;;;;1607556;73;748;-58
2023/08/02 03:06:08;;;;;;;;;;;22.00;50.00;;;;;;1596737;73;787;-59
2023/08/02 03:08:10;;;;;;;;;;;22.00;50.00;;;;;;1602062;73;1155;-60
2023/08/02 03:10:12;;;;;;;;;;;22.00;49.90;;;;;;1602986;73;1468;-58
2023/08/02 03:12:14;;;;;;;;;;;21.90;50.00;;;;;;1596833;73;757;-56
2023/08/02 03:14:16;;;;;;;;;;;22.00;50.00;;;;;;1587920;73;760;-56
2023/08/02 03:16:18;;;;;;;;;;;22.00;50.00;;;;;;1597335;73;1937;-57
2023/08/02 03:18:20;;;;;;;;;;;22.00;50.00;;;;;;1599529;73;1096;-57
2023/08/02 03:20:21;;;;;;;;;;;22.00;50.00;;;;;;1606730;73;728;-57
2023/08/02 03:22:23;;;;;;;;;;;21.90;49.90;;;;;;1603884;73;720;-59
2023/08/02 03:24:25;;;;;;;;;;;22.00;49.80;;;;;;1607085;73;1540;-60
2023/08/02 03:26:27;;;;;;;;;;;22.00;49.70;;;;;;1610455;73;718;-56
2023/08/02 03:28:29;;;;;;;;;;;21.90;49.70;;;;;;1611159;72;1126;-57
2023/08/02 03:30:31;;;;;;;;;;;21.90;49.70;;;;;;1601670;73;742;-55
2023/08/02 03:32:33;;;;;;;;;;;21.90;49.70;;;;;;1599198;73;776;-58
2023/08/02 03:34:35;;;;;;;;;;;21.90;49.70;;;;;;1592173;73;715;-59
2023/08/02 03:36:36;;;;;;;;;;;21.90;49.70;;;;;;1608785;73;1930;-58
2023/08/02 03:38:38;;;;;;;;;;;21.80;49.70;;;;;;1606345;73;1390;-57
2023/08/02 03:40:40;;;;;;;;;;;21.80;49.70;;;;;;1609744;73;702;-56
2023/08/02 03:42:42;;;;;;;;;;;21.90;50.00;;;;;;1593465;73;657;-56
2023/08/02 03:44:44;;;;;;;;;;;21.80;49.80;;;;;;1601061;73;726;-55
2023/08/02 03:46:46;;;;;;;;;;;21.90;50.00;;;;;;1589468;73;780;-58
2023/08/02 03:48:48;;;;;;;;;;;21.80;49.70;;;;;;1596793;73;1150;-58
2023/08/02 03:50:50;;;;;;;;;;;21.90;49.90;;;;;;1604256;73;717;-57
2023/08/02 03:52:51;;;;;;;;;;;21.90;50.00;;;;;;1610244;73;1602;-59
2023/08/02 03:54:53;;;;;;;;;;;21.90;49.90;;;;;;1608526;73;693;-56
2023/08/02 03:56:55;;;;;;;;;;;21.80;49.70;;;;;;1611645;73;1934;-58
2023/08/02 03:58:57;;;;;;;;;;;21.90;49.90;;;;;;1607415;73;1123;-57
2023/08/02 04:00:59;;;;;;;;;;;21.90;49.80;;;;;;1598018;73;726;-57
2023/08/02 04:03:01;;;;;;;;;;;21.90;49.80;;;;;;1610326;73;846;-59
2023/08/02 04:05:03;;;;;;;;;;;21.90;49.70;;;;;;1611198;73;859;-57
2023/08/02 04:07:05;;;;;;;;;;;21.90;49.70;;;;;;1595964;73;1547;-57
2023/08/02 04:09:06;;;;;;;;;;;21.90;49.70;;;;;;1606072;73;1186;-56
2023/08/02 04:11:09;;;;;;;;;;;21.80;49.60;;;;;;1601459;73;654;-57
2023/08/02 04:13:11;;;;;;;;;;;21.80;49.60;;;;;;1601343;73;760;-57
2023/08/02 04:15:13;;;;;;;;;;;21.80;49.60;;;;;;1601877;73;688;-58
2023/08/02 04:17:15;;;;;;;;;;;21.80;49.60;;;;;;1607367;73;1932;-57
2023/08/02 04:19:17;;;;;;;;;;;21.80;49.60;;;;;;1596523;73;1159;-58
2023/08/02 04:21:19;;;;;;;;;;;21.80;49.70;;;;;;1601334;73;1593;-60
2023/08/02 04:23:21;;;;;;;;;;;21.80;49.80;;;;;;1607250;72;954;-56
2023/08/02 04:25:23;;;;;;;;;;;21.80;49.80;;;;;;1609817;73;713;-57
2023/08/02 04:27:25;;;;;;;;;;;21.80;49.70;;;;;;1585999;73;729;-58
2023/08/02 04:29:26;;;;;;;;;;;21.80;49.70;;;;;;1589231;73;1153;-57
2023/08/02 04:31:28;;;;;;;;;;;21.80;49.70;;;;;;1601922;73;706;-59
2023/08/02 04:33:30;;;;;;;;;;;21.80;49.70;;;;;;1609002;73;690;-57
2023/08/02 04:35:32;;;;;;;;;;;21.70;49.70;;;;;;1597040;73;1516;-57
2023/08/02 04:37:35;;;;;;;;;;;21.80;50.00;;;;;;1598357;73;1933;-56
2023/08/02 04:39:37;;;;;;;;;;;21.70;49.90;;;;;;1602533;73;1146;-58
2023/08/02 04:41:39;;;;;;;;;;;21.80;49.90;;;;;;1603684;73;762;-56
2023/08/02 04:43:40;;;;;;;;;;;21.70;50.00;;;;;;1595261;73;741;-56
2023/08/02 04:45:42;;;;;;;;;;;21.70;50.00;;;;;;1605125;73;747;-59
2023/08/02 04:47:44;;;;;;;;;;;21.80;50.00;;;;;;1605886;73;693;-60
2023/08/02 04:49:46;;;;;;;;;;;21.70;50.00;;;;;;1602747;73;1354;-60
2023/08/02 04:51:48;;;;;;;;;;;21.70;49.90;;;;;;1598826;73;699;-57
2023/08/02 04:53:50;;;;;;;;;;;21.70;50.00;;;;;;1600766;73;684;-58
2023/08/02 04:55:52;;;;;;;;;;;21.70;50.00;;;;;;1601793;73;716;-58
2023/08/02 04:57:54;;;;;;;;;;;21.80;49.90;;;;;;1602268;73;1930;-57
2023/08/02 04:59:56;;;;;;;;;;;21.70;50.00;;;;;;1607735;73;1131;-56
2023/08/02 05:01:58;;;;;;;;;;;21.70;50.00;;;;;;1601696;73;727;-55
2023/08/02 05:04:00;;;;;;;;;;;21.80;49.80;;;;;;1609987;73;1590;-58
2023/08/02 05:06:02;;;;;;;;;;;21.80;49.90;;;;;;1606996;73;729;-58
2023/08/02 05:08:04;;;;;;;;;;;21.70;49.90;;;;;;1602274;73;724;-58
2023/08/02 05:10:07;;;;;;;;;;;21.70;49.90;;;;;;1609873;73;1169;-58
2023/08/02 05:12:09;;;;;;;;;;;21.70;49.90;;;;;;1602501;73;911;-58
2023/08/02 05:14:12;;;;;;;;;;;21.80;50.00;;;;;;1607526;73;745;-58
2023/08/02 05:16:14;;;;;;;;;;;21.70;49.90;;;;;;1599363;73;668;-59
2023/08/02 05:18:16;;;;;;;;;;;21.80;49.90;;;;;;1605474;73;1916;-57
2023/08/02 05:20:17;;;;;;;;;;;21.70;49.90;;;;;;1610932;72;773;-55
2023/08/02 05:22:19;;;;;;;;;;;21.70;49.70;;;;;;1603869;73;717;-59
2023/08/02 05:24:21;;;;;;;;;;;21.60;49.70;;;;;;1602066;73;798;-59
2023/08/02 05:26:23;;;;;;;;;;;21.70;50.00;;;;;;1597848;73;760;-60
2023/08/02 05:28:25;;;;;;;;;;;21.70;49.80;;;;;;1601431;73;1129;-59
2023/08/02 05:30:28;;;;;;;;;;;21.70;49.90;;;;;;1604546;73;727;-58
2023/08/02 05:32:30;;;;;;;;;;;21.70;49.80;;;;;;1607448;73;1871;-56
2023/08/02 05:34:32;;;;;;;;;;;21.70;49.70;;;;;;1611684;73;766;-59
2023/08/02 05:36:34;;;;;;;;;;;21.70;49.80;;;;;;1603840;73;825;-58
2023/08/02 05:38:36;;;;;;;;;;;21.70;49.60;;;;;;1602333;73;1946;-58
2023/08/02 05:40:38;;;;;;;;;;;21.60;49.80;;;;;;1603194;73;731;-59
2023/08/02 05:42:40;;;;;;;;;;;21.70;50.00;;;;;;1604048;73;735;-57
2023/08/02 05:44:42;;;;;;;;;;;21.70;50.10;;;;;;1589907;73;1520;-57
2023/08/02 05:46:44;;;;;;;;;;;21.70;50.00;;;;;;1610351;73;660;-58
2023/08/02 05:48:45;;;;;;;;;;;21.70;50.00;;;;;;1603923;73;1115;-56
2023/08/02 05:50:47;;;;;;;;;;;21.70;50.00;;;;;;1606585;73;876;-57
2023/08/02 05:52:49;;;;;;;;;;;21.60;49.70;;;;;;1601387;73;801;-59
2023/08/02 05:54:51;;;;;;;;;;;21.60;49.20;;;;;;1591206;73;735;-57
2023/08/02 05:56:53;;;;;;;;;;;21.60;49.50;;;;;;1603302;73;815;-58
2023/08/02 05:58:55;;;;;;;;;;;21.60;49.70;;;;;;1603782;73;1972;-57
2023/08/02 06:00:57;;;;;;;;;;;21.60;49.50;;;;;;1585979;73;723;-57
2023/08/02 06:02:59;;;;;;;;;;;21.60;49.60;;;;;;1608561;73;759;-57
2023/08/02 06:05:00;;;;;;;;;;;21.60;49.70;;;;;;1598102;73;784;-57
2023/08/02 06:07:03;;;;;;;;;;;21.60;49.90;;;;;;1601582;73;729;-56
2023/08/02 06:09:05;;;;;;;;;;;21.60;49.70;;;;;;1602227;73;1110;-58
2023/08/02 06:11:06;;;;;;;;;;;21.60;49.80;;;;;;1602448;73;713;-60
2023/08/02 06:13:08;;;;;;;;;;;21.60;49.90;;;;;;1608870;73;1527;-57
2023/08/02 06:15:10;;;;;;;;;;;21.60;50.00;;;;;;1608237;72;762;-57
2023/08/02 06:17:12;;;;;;;;;;;21.60;50.00;;;;;;1607622;72;1952;-57
2023/08/02 06:19:14;;;;;;;;;;;21.60;50.00;;;;;;1603550;73;1123;-57
2023/08/02 06:21:16;;;;;;;;;;;21.70;50.20;;;;;;1602150;73;710;-55
2023/08/02 06:23:18;;;;;;;;;;;21.60;50.10;;;;;;1595805;72;772;-58
2023/08/02 06:25:20;;;;;;;;;;;21.60;50.30;;;;;;1607802;73;719;-58
2023/08/02 06:27:21;;;;;;;;;;;21.60;50.30;;;;;;1603394;73;1518;-57
2023/08/02 06:29:23;;;;;;;;;;;21.60;50.50;;;;;;1609976;73;1103;-57
2023/08/02 06:31:25;;;;;;;;;;;21.60;50.50;;;;;;1607585;73;749;-58
2023/08/02 06:33:27;;;;;;;;;;;21.70;50.70;;;;;;1609640;73;919;-57
2023/08/02 06:35:29;;;;;;;;;;;21.70;50.80;;;;;;1600374;72;1188;-56
2023/08/02 06:37:31;;;;;;;;;;;21.70;50.80;;;;;;1611989;73;1929;-59
2023/08/02 06:39:33;;;;;;;;;;;21.60;50.80;;;;;;1594878;73;1127;-60
2023/08/02 06:41:35;;;;;;;;;;;21.70;51.00;;;;;;1605674;73;1499;-58
2023/08/02 06:43:37;;;;;;;;;;;21.70;51.10;;;;;;1588711;73;757;-59
2023/08/02 06:45:40;;;;;;;;;;;21.60;51.00;;;;;;1594423;73;719;-59
2023/08/02 06:47:42;;;;;;;;;;;21.60;51.20;;;;;;1606252;73;2019;-57
2023/08/02 06:49:44;;;;;;;;;;;21.60;51.20;;;;;;1597515;73;1129;-57
2023/08/02 06:51:46;;;;;;;;;;;21.70;51.30;;;;;;1600738;73;701;-56
2023/08/02 06:53:48;;;;;;;;;;;21.60;51.30;;;;;;1608382;73;732;-59
2023/08/02 06:55:50;;;;;;;;;;;21.60;51.30;;;;;;1604300;73;1765;-58
2023/08/02 06:57:52;;;;;;;;;;;21.70;51.50;;;;;;1608283;73;1945;-58
2023/08/02 06:59:55;;;;;;;;;;;21.70;51.50;;;;;;1596556;73;1105;-57
2023/08/02 07:01:57;;;;;;;;;;;21.60;51.50;;;;;;1609283;73;692;-55
2023/08/02 07:03:59;;;;;;;;;;;21.70;51.80;;;;;;1611358;73;936;-60
2023/08/02 07:06:00;;;;;;;;;;;21.70;51.80;;;;;;1610487;73;827;-58
2023/08/02 07:08:03;;;;;;;;;;;21.60;51.80;;;;;;1608859;73;775;-58
2023/08/02 07:10:05;;;;;;;;;;;21.70;51.80;;;;;;1607240;73;1565;-59
2023/08/02 07:12:07;;;;;;;;;;;21.70;51.90;;;;;;1609263;72;767;-57
2023/08/02 07:14:09;;;;;;;;;;;21.70;51.90;;;;;;1603387;73;778;-58
2023/08/02 07:16:11;;;;;;;;;;;21.70;52.00;;;;;;1600202;73;769;-57
2023/08/02 07:18:13;;;;;;;;;;;21.70;52.10;;;;;;1610642;73;1922;-59
2023/08/02 07:20:15;;;;;;;;;;;21.60;52.10;;;;;;1602324;73;680;-55
2023/08/02 07:22:17;;;;;;;;;;;21.70;52.20;;;;;;1589494;73;680;-57
2023/08/02 07:24:19;;;;;;;;;;;21.70;52.30;;;;;;1598881;73;1420;-58
2023/08/02 07:26:22;;;;;;;;;;;21.70;52.10;;;;;;1605953;73;747;-56
2023/08/02 07:28:24;;;;;;;;;;;21.70;52.30;;;;;;1610957;73;1195;-57
2023/08/02 07:30:26;;;;;;;;;;;21.70;52.40;;;;;;1601226;73;770;-56
2023/08/02 07:32:28;;;;;;;;;;;21.70;52.60;;;;;;1601298;73;765;-58
2023/08/02 07:34:30;;;;;;;;;;;21.70;52.50;;;;;;1609069;73;658;-57
2023/08/02 07:36:32;;;;;;;;;;;21.70;52.70;;;;;;1608518;73;789;-56
2023/08/02 07:38:34;;;;;;;;;;;21.80;52.50;;;;;;1594293;73;1918;-58
2023/08/02 07:40:36;;;;;;;;;;;21.70;52.50;;;;;;1600661;73;743;-56
2023/08/02 07:42:38;;;;;;;;;;;21.70;52.70;;;;;;1593933;73;728;-59
2023/08/02 07:44:40;;;;;;;;;;;21.70;52.60;;;;;;1588679;73;694;-59
2023/08/02 07:46:41;;;;;;;;;;;21.60;52.60;;;;;;1590269;73;735;-57
2023/08/02 07:48:43;;;;;;;;;;;21.70;52.70;;;;;;1602601;73;1122;-58
2023/08/02 07:50:45;;;;;;;;;;;21.70;52.70;;;;;;1606271;73;710;-58
2023/08/02 07:52:48;;;;;;;;;;;21.70;52.90;;;;;;1604791;73;1346;-57
2023/08/02 07:54:53;;;;;;;;;;;21.60;53.00;;;;;;1588792;73;747;-59
2023/08/02 07:56:54;;;;;;;;;;;21.70;53.30;;;;;;1601520;73;741;-59
2023/08/02 07:58:56;;;;;;;;;;;21.70;53.40;;;;;;1607013;73;1936;-58
2023/08/02 08:01:00;;;;;;;;;;;21.60;53.00;;;;;;1594159;73;675;-56
2023/08/02 08:03:03;;;;;;;;;;;21.70;53.30;;;;;;1610692;73;1805;-56
2023/08/02 08:05:05;;;;;;;;;;;21.60;53.40;;;;;;1596459;73;722;-58
2023/08/02 08:07:07;;;;;;;;;;;21.70;53.40;;;;;;1609108;73;1682;-59
2023/08/02 08:09:09;;;;;;;;;;;21.60;53.20;;;;;;1601753;72;1116;-58
2023/08/02 08:11:11;;;;;;;;;;;21.60;53.30;;;;;;1597083;73;726;-59
2023/08/02 08:13:13;;;;;;;;;;;21.60;53.40;;;;;;1606557;73;716;-57
2023/08/02 08:15:15;;;;;;;;;;;21.70;53.60;;;;;;1599792;73;707;-55
2023/08/02 08:17:17;;;;;;;;;;;21.70;53.60;;;;;;1598643;73;803;-56
2023/08/02 08:19:18;;;;;;;;;;;21.60;53.50;;;;;;1606643;72;1936;-57
2023/08/02 08:21:20;;;;;;;;;;;21.70;53.70;;;;;;1607658;73;827;-57
2023/08/02 08:23:22;;;;;;;;;;;21.70;53.90;;;;;;1610240;73;754;-58
2023/08/02 08:25:24;;;;;;;;;;;21.70;53.80;;;;;;1609309;73;718;-59
2023/08/02 08:27:26;;;;;;;;;;;21.70;53.70;;;;;;1611751;73;711;-58
2023/08/02 08:29:28;;;;;;;;;;;21.70;53.90;;;;;;1602055;73;1123;-59
2023/08/02 08:31:30;;;;;;;;;;;21.70;54.20;;;;;;1607143;73;660;-56
2023/08/02 08:33:32;;;;;;;;;;;21.70;53.90;;;;;;1604477;73;1527;-58
2023/08/02 08:35:34;;;;;;;;;;;21.70;54.00;;;;;;1589656;73;720;-57
2023/08/02 08:37:36;;;;;;;;;;;21.70;53.90;;;;;;1589229;73;828;-56
2023/08/02 08:39:38;;;;;;;;;;;21.70;54.00;;;;;;1604775;73;1906;-57
2023/08/02 08:41:40;;;;;;;;;;;21.70;54.10;;;;;;1608842;73;744;-58
2023/08/02 08:43:42;;;;;;;;;;;21.70;54.10;;;;;;1609032;73;752;-58
2023/08/02 08:45:44;;;;;;;;;;;21.70;54.10;;;;;;1599643;73;755;-60
2023/08/02 08:47:46;;;;;;;;;;;21.70;54.20;;;;;;1602855;73;1531;-59
2023/08/02 08:49:48;;;;;;;;;;;21.70;54.20;;;;;;1602439;73;1079;-58
2023/08/02 08:51:51;;;;;;;;;;;21.70;54.40;;;;;;1600264;73;718;-57
2023/08/02 08:53:54;;;;;;;;;;;21.70;54.30;;;;;;1610863;73;726;-56
2023/08/02 08:55:56;;;;;;;;;;;21.70;54.20;;;;;;1602816;73;767;-57
2023/08/02 08:57:58;;;;;;;;;;;21.70;54.30;;;;;;1593473;73;796;-56
2023/08/02 09:00:00;;;;;;;;;;;21.70;54.30;;;;;;1601716;73;1941;-57
2023/08/02 09:02:02;;;;;;;;;;;21.70;54.20;;;;;;1611572;73;1509;-59
2023/08/02 09:04:04;;;;;;;;;;;21.80;54.30;;;;;;1603029;73;758;-59
2023/08/02 09:06:06;;;;;;;;;;;21.70;54.40;;;;;;1611354;72;715;-59
2023/08/02 09:08:08;;;;;;;;;;;21.70;54.20;;;;;;1603626;73;808;-58
2023/08/02 09:10:10;;;;;;;;;;;21.70;54.40;;;;;;1590093;73;665;-56
2023/08/02 09:12:12;;;;;;;;;;;21.70;54.40;;;;;;1606468;73;741;-58
2023/08/02 09:14:15;;;;;;;;;;;21.70;54.40;;;;;;1610091;73;843;-57
2023/08/02 09:16:17;;;;;;;;;;;21.70;54.40;;;;;;1603527;73;1487;-57
2023/08/02 09:18:19;;;;;;;;;;;21.70;54.50;;;;;;1589092;73;1954;-57
2023/08/02 09:20:21;;;;;;;;;;;21.70;54.60;;;;;;1570851;74;1202;-57
2023/08/02 09:22:24;;;;;;;;;;;21.70;54.70;;;;;;1603132;73;725;-57
2023/08/02 09:24:33;;;;;;;;;;;21.70;54.70;;;;;;1604607;73;846;-58
2023/08/02 09:26:35;;;;;;;;;;;21.80;54.50;;;;;;1606008;73;756;-60
2023/08/02 09:28:37;;;;;;;;;;;21.70;54.70;;;;;;1596344;73;1117;-59
2023/08/02 09:30:40;;;;;;;;;;;21.70;54.80;;;;;;1598498;73;1517;-57
2023/08/02 09:32:43;;;;;;;;;;;21.70;55.00;;;;;;1609904;73;750;-57
2023/08/02 09:34:49;;;;;;;;;;;21.80;55.00;;;;;;1608249;73;1786;-59
2023/08/02 09:36:51;;;;;;;;;;;21.70;55.00;;;;;;1608934;73;788;-57
2023/08/02 09:39:06;;;;;;;;;;;21.70;54.90;;;;;;1610060;73;1946;-58
2023/08/02 09:41:04;;;;;;;;;;;21.70;55.00;;;;;;1608352;73;1560;-57
2023/08/02 09:43:07;;;;;;;;;;;21.70;55.20;;;;;;1592366;73;709;-57
2023/08/02 09:45:10;;;;;;;;;;;21.70;55.20;;;;;;1570285;74;1610;-57
2023/08/02 09:47:12;;;;;;;;;;;21.70;55.20;;;;;;1600578;73;851;-57
2023/08/02 09:49:17;;;;;;;;;;;21.70;55.20;;;;;;1602165;73;1053;-57
2023/08/02 09:51:19;;;;;;;;;;;21.70;55.50;;;;;;1600850;73;728;-58
2023/08/02 09:53:23;;;;;;;;;;;21.70;55.30;;;;;;1607206;73;774;-58
2023/08/02 09:55:24;;;;;;;;;;;21.70;55.30;;;;;;1609202;73;1665;-58
2023/08/02 09:57:27;;;;;;;;;;;21.60;55.30;;;;;;1611023;72;673;-58
2023/08/02 09:59:29;;;;;;;;;;;21.70;55.40;;;;;;1609106;73;1918;-59
2023/08/02 10:01:31;;;;;;;;;;;21.70;55.30;;;;;;1600144;72;720;-60
2023/08/02 10:03:33;;;;;;;;;;;21.70;55.30;;;;;;1602860;73;781;-60
2023/08/02 10:05:35;;;;;;;;;;;21.70;55.40;;;;;;1610918;73;677;-57
2023/08/02 10:07:39;;;;;;;;;;;21.70;55.60;;;;;;1603838;73;681;-57
2023/08/02 10:09:41;;;;;;;;;;;21.70;55.60;;;;;;1611441;73;1064;-58
2023/08/02 10:11:48;;;;;;;;;;;21.60;55.80;;;;;;1603634;73;786;-60
2023/08/02 10:13:50;;;;;;;;;;;21.70;55.80;;;;;;1610620;73;930;-58
2023/08/02 10:15:52;;;;;;;;;;;21.70;55.70;;;;;;1602997;72;696;-57
2023/08/02 10:17:55;;;;;;;;;;;21.60;55.70;;;;;;1610068;73;707;-58
2023/08/02 10:19:59;;;;;;;;;;;21.70;55.60;;;;;;1601043;73;1947;-59
2023/08/02 10:22:03;;;;;;;;;;;21.70;55.80;;;;;;1602203;73;679;-59
2023/08/02 10:24:05;;;;;;;;;;;21.70;55.80;;;;;;1606706;73;752;-58
2023/08/02 10:26:07;;;;;;;;;;;21.60;56.00;;;;;;1608397;73;1533;-60
2023/08/02 10:28:09;;;;;;;;;;;21.60;55.90;;;;;;1600446;73;742;-57
2023/08/02 10:30:11;;;;;;;;;;;21.70;56.00;;;;;;1596313;73;744;-56
2023/08/02 10:32:13;;;;;;;;;;;21.70;56.30;;;;;;1602826;73;845;-57
2023/08/02 10:34:33;;;;;;;;;;;21.70;56.30;;;;;;1611470;73;873;-58
2023/08/02 10:36:37;;;;;;;;;;;21.70;56.30;;;;;;1609836;73;960;-58
2023/08/02 10:38:46;;;;;;;;;;;21.70;56.30;;;;;;1607190;73;1859;-59
2023/08/02 10:41:02;;;;;;;;;;;21.70;57.50;;;;;;1610817;72;1545;-58
2023/08/02 10:43:05;;;;;;;;;;;21.70;57.20;;;;;;1594677;73;809;-59
2023/08/02 10:45:13;;;;;;;;;;;21.80;57.10;;;;;;1605005;73;795;-60
2023/08/02 10:47:24;;;;;;;;;;;21.80;57.10;;;;;;1599692;73;795;-59
2023/08/02 10:49:33;;;;;;;;;;;21.80;57.60;;;;;;1603370;73;1081;-58
2023/08/02 10:51:41;;;;;;;;;;;21.80;57.40;;;;;;1603467;73;748;-58
2023/08/02 10:53:39;;;;;;;;;;;21.80;57.50;;;;;;1604583;73;1395;-58
2023/08/02 10:55:59;;;;;;;;;;;21.90;57.40;;;;;;1610284;73;1527;-58
2023/08/02 10:58:08;;;;;;;;;;;21.80;57.10;;;;;;1606158;72;798;-59
2023/08/02 11:00:15;;;;;;;;;;;21.90;57.20;;;;;;1603243;73;1920;-60
2023/08/02 11:02:17;;;;;;;;;;;21.90;57.10;;;;;;1608714;73;1043;-56
2023/08/02 11:04:19;;;;;;;;;;;21.90;57.30;;;;;;1609686;73;750;-57
2023/08/02 11:06:26;;;;;;;;;;;21.80;57.30;;;;;;1604006;73;772;-59
2023/08/02 11:08:28;;;;;;;;;;;21.80;57.60;;;;;;1604265;73;1594;-56
2023/08/02 11:10:30;;;;;;;;;;;21.90;57.60;;;;;;1608525;73;765;-59
2023/08/02 11:12:33;;;;;;;;;;;21.80;57.30;;;;;;1605730;73;912;-58
2023/08/02 11:14:36;;;;;;;;;;;21.90;57.30;;;;;;1606085;73;766;-59
2023/08/02 11:16:41;;;;;;;;;;;21.90;57.00;;;;;;1597455;73;764;-58
2023/08/02 11:18:43;;;;;;;;;;;22.00;56.80;;;;;;1607018;73;1073;-56
2023/08/02 11:20:44;;;;;;;;;;;22.00;56.60;;;;;;1600110;73;1972;-56
2023/08/02 11:22:46;;;;;;;;;;;21.90;56.40;;;;;;1602546;73;1500;-57
2023/08/02 11:24:52;;;;;;;;;;;22.00;56.50;;;;;;1607567;73;712;-58
2023/08/02 11:26:55;;;;;;;;;;;22.00;56.40;;;;;;1600087;73;692;-59
2023/08/02 11:28:57;;;;;;;;;;;22.00;57.10;;;;;;1588687;73;1152;-58
2023/08/02 11:30:58;;;;;;;;;;;22.00;56.80;;;;;;1595012;73;722;-58
2023/08/02 11:33:00;;;;;;;;;;;22.00;56.90;;;;;;1603306;73;779;-57
2023/08/02 11:35:02;;;;;;;;;;;22.00;57.30;;;;;;1603769;73;840;-59
2023/08/02 11:37:04;;;;;;;;;;;22.10;57.50;;;;;;1600278;72;1477;-59
2023/08/02 11:39:06;;;;;;;;;;;22.10;57.30;;;;;;1607307;72;1953;-58
2023/08/02 11:41:12;;;;;;;;;;;22.10;57.20;;;;;;1604167;73;746;-55
2023/08/02 11:43:15;;;;;;;;;;;22.00;56.80;;;;;;1598016;73;1582;-56
2023/08/02 11:45:29;;;;;;;;;;;22.10;57.30;;;;;;1605235;73;818;-58
2023/08/02 11:47:34;;;;;;;;;;;22.10;57.10;;;;;;1610675;73;765;-59
2023/08/02 11:49:50;;;;;;;;;;;22.10;57.30;;;;;;1588700;73;1120;-60
2023/08/02 11:51:52;;;;;;;;;;;22.10;57.60;;;;;;1600947;73;1520;-58
2023/08/02 11:53:58;;;;;;;;;;;22.10;57.70;;;;;;1600948;72;680;-59
2023/08/02 11:55:59;;;;;;;;;;;22.10;57.30;;;;;;1606993;73;711;-58
2023/08/02 11:58:02;;;;;;;;;;;22.10;57.60;;;;;;1580005;74;709;-57
2023/08/02 12:00:05;;;;;;;;;;;22.30;57.50;;;;;;1603918;73;1933;-58
2023/08/02 12:02:09;;;;;;;;;;;22.20;57.20;;;;;;1609863;73;716;-60
2023/08/02 12:04:11;;;;;;;;;;;22.20;57.50;;;;;;1603489;73;1783;-58
2023/08/02 12:06:12;;;;;;;;;;;22.20;58.00;;;;;;1600460;72;1515;-60
2023/08/02 12:08:16;;;;;;;;;;;22.20;58.70;;;;;;1602347;73;1170;-58
2023/08/02 12:10:25;;;;;;;;;;;22.20;58.90;;;;;;1606065;73;712;-58